Time;durP1;ratioP1;P1;durP2;ratioP2;P2;SDS_P1;SDS_P2;PMS_P1;PMS_P2;Temp;Humidity;BMP_temperature;BMP_pressure;BME280_temperature;BME280_humidity;BME280_pressure;Samples;Min_cycle;Max_cycle;Signal;HPM_P1;HPM_P2
2023/10/31 00:00:33;;;;;;;12.70;9.30;;;;;;;10.64;100.00;98082.32;430049;1276;139906;-62
2023/10/31 00:10:39;;;;;;;11.90;9.80;;;;;;;10.61;100.00;98071.92;430087;1275;139744;-62
2023/10/31 00:20:45;;;;;;;11.20;8.70;;;;;;;10.74;100.00;98044.89;430328;1276;141328;-62
2023/10/31 00:30:51;;;;;;;13.30;8.30;;;;;;;10.80;100.00;98026.89;430413;1276;139703;-62
2023/10/31 00:40:57;;;;;;;10.40;8.00;;;;;;;10.83;100.00;98008.07;430212;1276;140707;-62
2023/10/31 00:51:04;;;;;;;13.50;8.90;;;;;;;10.90;100.00;97987.81;430933;1270;139910;-62
2023/10/31 01:01:09;;;;;;;12.50;8.50;;;;;;;10.90;100.00;97973.60;430989;1276;139792;-61
2023/10/31 01:11:15;;;;;;;15.30;8.10;;;;;;;10.87;100.00;97948.52;430587;1270;139754;-61
2023/10/31 01:21:21;;;;;;;11.40;6.70;;;;;;;10.82;100.00;97917.80;430227;1275;140280;-61
2023/10/31 01:31:27;;;;;;;9.60;7.20;;;;;;;10.75;100.00;97903.55;429703;1270;141228;-60
2023/10/31 01:41:33;;;;;;;9.80;6.70;;;;;;;10.74;100.00;97881.90;429903;1276;141205;-62
2023/10/31 01:51:38;;;;;;;7.60;6.50;;;;;;;10.74;100.00;97858.88;429678;1275;139686;-62
2023/10/31 02:01:44;;;;;;;8.30;5.60;;;;;;;10.75;100.00;97837.77;429812;1270;141295;-61
2023/10/31 02:11:51;;;;;;;20.30;6.00;;;;;;;10.77;100.00;97812.38;430042;1274;140012;-62
2023/10/31 02:21:57;;;;;;;9.20;5.80;;;;;;;10.78;100.00;97795.45;429827;1270;141196;-62
2023/10/31 02:32:03;;;;;;;8.20;5.20;;;;;;;10.81;100.00;97775.59;429753;1271;142195;-61
2023/10/31 02:42:09;;;;;;;7.80;4.90;;;;;;;10.90;100.00;97747.11;429902;1275;140495;-62
2023/10/31 02:52:15;;;;;;;6.60;4.70;;;;;;;11.04;100.00;97722.29;429847;1271;139626;-62
2023/10/31 03:02:22;;;;;;;6.60;3.80;;;;;;;11.20;100.00;97698.07;429768;1274;139707;-62
2023/10/31 03:12:28;;;;;;;5.10;4.20;;;;;;;11.41;100.00;97656.42;430253;1275;139561;-62
2023/10/31 03:22:34;;;;;;;8.10;5.00;;;;;;;11.59;100.00;97660.94;429757;1270;140940;-62
2023/10/31 03:32:40;;;;;;;4.90;3.80;;;;;;;11.69;100.00;97652.23;429864;1276;140447;-62
2023/10/31 03:42:46;;;;;;;7.60;3.90;;;;;;;11.78;100.00;97631.20;429971;1276;140252;-66
2023/10/31 03:52:52;;;;;;;5.40;3.70;;;;;;;11.79;100.00;97626.60;429928;1270;142708;-62
2023/10/31 04:02:58;;;;;;;6.90;3.70;;;;;;;11.77;100.00;97606.91;429909;1270;139679;-62
2023/10/31 04:13:04;;;;;;;6.70;3.80;;;;;;;11.83;100.00;97575.73;430137;1271;139303;-61
2023/10/31 04:23:11;;;;;;;3.30;3.00;;;;;;;11.88;100.00;97558.51;430205;1273;140266;-63
2023/10/31 04:33:17;;;;;;;5.50;4.20;;;;;;;11.90;100.00;97556.35;431354;1270;141107;-62
2023/10/31 04:43:23;;;;;;;5.20;3.70;;;;;;;11.95;100.00;97560.32;430339;1273;139652;-62
2023/10/31 04:53:29;;;;;;;5.80;2.90;;;;;;;11.97;100.00;97549.20;430176;1270;139620;-62
2023/10/31 05:03:35;;;;;;;5.50;3.00;;;;;;;12.05;100.00;97532.14;429892;1271;139809;-62
2023/10/31 05:13:42;;;;;;;3.00;2.20;;;;;;;12.35;100.00;97526.79;429889;1271;140220;-62
2023/10/31 05:23:47;;;;;;;2.50;1.90;;;;;;;12.71;100.00;97502.27;429995;1270;139393;-62
2023/10/31 05:33:53;;;;;;;3.70;2.00;;;;;;;12.95;100.00;97503.48;429824;1273;141751;-62
2023/10/31 05:43:59;;;;;;;3.40;1.90;;;;;;;13.08;100.00;97501.19;429879;1274;139601;-62
2023/10/31 05:54:07;;;;;;;2.20;1.70;;;;;;;13.20;100.00;97510.10;429969;1273;139599;-62
2023/10/31 06:04:13;;;;;;;3.00;1.80;;;;;;;13.33;100.00;97522.80;430036;1275;139411;-62
2023/10/31 06:14:19;;;;;;;2.90;1.90;;;;;;;13.30;100.00;97522.34;429713;1276;139596;-61
2023/10/31 06:24:25;;;;;;;3.80;1.60;;;;;;;13.26;100.00;97518.62;429683;1273;140452;-61
2023/10/31 06:34:31;;;;;;;3.20;2.10;;;;;;;13.29;100.00;97515.30;429711;1273;141122;-62
2023/10/31 06:44:37;;;;;;;5.20;2.10;;;;;;;13.43;100.00;97518.58;429651;1273;139866;-62
2023/10/31 06:54:43;;;;;;;2.30;2.00;;;;;;;13.69;100.00;97519.63;429273;1275;187695;-62
2023/10/31 07:04:49;;;;;;;5.10;1.90;;;;;;;13.92;100.00;97527.46;429423;1273;139496;-67
2023/10/31 07:14:55;;;;;;;6.40;2.40;;;;;;;14.08;100.00;97512.23;430294;1276;140266;-65
2023/10/31 07:25:03;;;;;;;5.30;2.50;;;;;;;14.16;100.00;97514.46;430810;1270;139335;-67
2023/10/31 07:35:10;;;;;;;7.10;3.00;;;;;;;14.20;100.00;97508.41;430722;1275;140686;-69
2023/10/31 07:45:16;;;;;;;7.40;2.50;;;;;;;14.22;100.00;97518.72;430374;1270;139583;-66
2023/10/31 07:55:22;;;;;;;3.40;2.00;;;;;;;14.21;100.00;97530.89;430661;1271;139409;-66
2023/10/31 08:05:28;;;;;;;3.30;2.10;;;;;;;14.31;100.00;97536.69;430301;1271;139602;-64
2023/10/31 08:15:34;;;;;;;4.60;2.70;;;;;;;14.52;100.00;97538.76;429829;1270;139602;-63
2023/10/31 08:25:40;;;;;;;5.30;1.80;;;;;;;14.85;100.00;97546.20;429726;1270;139545;-65
2023/10/31 08:35:47;;;;;;;2.10;1.50;;;;;;;14.93;100.00;97545.66;430038;1274;139957;-65
2023/10/31 08:45:53;;;;;;;2.30;1.80;;;;;;;15.04;100.00;97546.85;430226;1270;140194;-63
2023/10/31 08:55:59;;;;;;;5.20;2.90;;;;;;;15.11;100.00;97558.08;429937;1275;139483;-67
2023/10/31 09:06:05;;;;;;;5.20;1.90;;;;;;;15.12;100.00;97567.12;429911;1270;139684;-66
2023/10/31 09:16:12;;;;;;;4.20;2.40;;;;;;;15.32;100.00;97562.80;429873;1274;139347;-69
2023/10/31 09:26:18;;;;;;;3.60;2.50;;;;;;;15.35;100.00;97576.04;430491;1270;140289;-63
2023/10/31 09:36:24;;;;;;;4.00;3.00;;;;;;;15.32;100.00;97586.81;429911;1270;139617;-62
2023/10/31 09:46:30;;;;;;;5.30;2.10;;;;;;;15.27;100.00;97608.37;430368;1274;140721;-68
2023/10/31 09:56:37;;;;;;;6.60;3.00;;;;;;;14.99;100.00;97633.53;430809;1271;139373;-65
2023/10/31 10:06:52;;;;;;;3.50;1.80;;;;;;;14.85;100.00;97629.65;430514;1270;139351;-68
2023/10/31 10:16:59;;;;;;;4.50;2.60;;;;;;;14.82;100.00;97637.91;442713;1269;139602;-67
2023/10/31 10:27:05;;;;;;;3.60;1.60;;;;;;;14.85;100.00;97654.90;430142;1274;139561;-68
2023/10/31 10:37:11;;;;;;;2.30;1.50;;;;;;;15.02;100.00;97668.31;434084;1270;139326;-71
2023/10/31 10:47:19;;;;;;;2.30;1.30;;;;;;;14.87;100.00;97689.36;433041;1270;139543;-65
2023/10/31 10:57:37;;;;;;;4.70;4.10;;;;;;;14.71;100.00;97699.55;430976;1273;139533;-71
2023/10/31 11:07:45;;;;;;;1.60;1.50;;;;;;;14.67;100.00;97716.69;430877;1274;139479;-72
2023/10/31 11:17:49;;;;;;;;;;;;;;;14.69;100.00;97743.94;430743;1269;139539;-65
2023/10/31 11:27:58;;;;;;;2.10;1.90;;;;;;;14.55;100.00;97751.98;430644;1274;125830;-68
2023/10/31 11:38:06;;;;;;;1.10;1.00;;;;;;;14.39;100.00;97761.06;430828;1270;139723;-70
2023/10/31 11:48:13;;;;;;;2.60;1.50;;;;;;;14.48;100.00;97765.31;432067;1272;139295;-63
2023/10/31 11:58:20;;;;;;;2.00;1.70;;;;;;;14.43;100.00;97767.23;430254;1275;139993;-75
2023/10/31 12:08:32;;;;;;;2.60;0.90;;;;;;;14.39;100.00;97771.56;433152;1270;142232;-69
2023/10/31 12:18:40;;;;;;;1.60;0.90;;;;;;;14.21;100.00;97771.64;430457;1271;139626;-70
2023/10/31 12:28:46;;;;;;;1.20;1.10;;;;;;;14.11;100.00;97779.75;430532;1275;139947;-70
2023/10/31 12:38:53;;;;;;;1.70;1.20;;;;;;;14.19;100.00;97782.41;430468;1274;141349;-66
2023/10/31 12:48:59;;;;;;;0.90;0.90;;;;;;;14.34;100.00;97778.58;430579;1274;140577;-66
2023/10/31 12:59:07;;;;;;;1.70;0.90;;;;;;;14.40;100.00;97785.63;430275;1276;139351;-70
2023/10/31 13:09:14;;;;;;;2.40;0.80;;;;;;;14.68;100.00;97798.30;431445;1270;139401;-61
2023/10/31 13:19:21;;;;;;;4.00;1.30;;;;;;;15.03;100.00;97791.83;430593;1270;139558;-64
2023/10/31 13:29:27;;;;;;;2.50;0.60;;;;;;;15.19;99.99;97799.33;433690;1272;139436;-68
2023/10/31 13:39:33;;;;;;;1.20;0.70;;;;;;;15.05;99.53;97823.86;430262;1272;139450;-64
2023/10/31 13:49:39;;;;;;;8.70;1.20;;;;;;;14.80;99.37;97841.39;429850;1275;139347;-72
2023/10/31 13:59:45;;;;;;;2.20;1.70;;;;;;;14.55;99.58;97850.73;430213;1273;139380;-63
2023/10/31 14:09:52;;;;;;;10.00;1.80;;;;;;;14.29;99.63;97844.41;430799;1273;140667;-62
2023/10/31 14:19:58;;;;;;;4.50;0.70;;;;;;;14.08;99.58;97848.86;433466;1272;140022;-71
2023/10/31 14:30:06;;;;;;;2.40;1.00;;;;;;;13.95;99.06;97856.46;434072;1270;140097;-80
2023/10/31 14:40:13;;;;;;;1.80;0.60;;;;;;;13.81;98.19;97886.77;435219;1270;140189;-76
2023/10/31 14:50:20;;;;;;;1.50;0.60;;;;;;;13.65;97.67;97903.99;429968;1276;139465;-72
2023/10/31 15:00:26;;;;;;;0.70;0.60;;;;;;;13.52;97.41;97927.29;429858;1274;139492;-64
2023/10/31 15:10:32;;;;;;;2.50;0.70;;;;;;;13.38;97.19;97932.89;429846;1274;140105;-63
2023/10/31 15:20:38;;;;;;;3.20;0.90;;;;;;;13.24;97.29;97934.83;430824;1275;139636;-64
2023/10/31 15:30:44;;;;;;;5.10;2.50;;;;;;;13.08;97.12;97918.09;430876;1275;139313;-65
2023/10/31 15:40:50;;;;;;;1.40;1.30;;;;;;;12.89;97.03;97914.08;430333;1276;139134;-67
2023/10/31 15:51:00;;;;;;;3.00;1.50;;;;;;;12.74;97.18;97922.66;429532;1275;139349;-68
2023/10/31 16:01:07;;;;;;;4.00;1.60;;;;;;;12.62;97.26;97929.80;430146;1274;139361;-69
2023/10/31 16:11:14;;;;;;;4.80;1.70;;;;;;;12.51;97.46;97931.79;430799;1275;140978;-63
2023/10/31 16:21:21;;;;;;;1.30;1.20;;;;;;;12.35;97.50;97945.27;429788;1275;140033;-62
2023/10/31 16:31:27;;;;;;;0.60;0.60;;;;;;;12.18;97.31;97944.27;429782;1276;139589;-63
2023/10/31 16:41:32;;;;;;;2.20;1.20;;;;;;;12.05;97.25;97961.94;429636;1276;139263;-63
2023/10/31 16:51:38;;;;;;;7.60;3.70;;;;;;;11.93;97.24;97992.17;429600;1274;142017;-63
2023/10/31 17:01:44;;;;;;;16.60;7.90;;;;;;;11.85;97.62;97992.02;429417;1274;140959;-62
2023/10/31 17:11:50;;;;;;;17.10;9.10;;;;;;;11.71;98.53;97999.47;430451;1274;141217;-62
2023/10/31 17:21:56;;;;;;;19.50;12.80;;;;;;;11.49;99.76;98010.09;429696;1276;140606;-62
2023/10/31 17:32:02;;;;;;;13.20;9.90;;;;;;;11.25;100.00;98012.30;429578;1273;139882;-61
2023/10/31 17:42:21;;;;;;;18.20;9.90;;;;;;;11.00;100.00;97999.98;429934;1273;140117;-63
2023/10/31 17:52:29;;;;;;;15.40;10.10;;;;;;;10.77;100.00;98027.25;430147;1276;141305;-62
2023/10/31 18:02:35;;;;;;;20.20;10.90;;;;;;;10.57;100.00;98053.77;429813;1273;140847;-62
2023/10/31 18:12:43;;;;;;;18.30;11.40;;;;;;;10.36;100.00;98066.21;430078;1273;139675;-63
2023/10/31 18:22:48;;;;;;;;;;;;;;;10.18;100.00;98072.30;429828;1275;140094;-63
2023/10/31 18:32:53;;;;;;;9.30;7.00;;;;;;;10.09;100.00;98082.69;429764;1275;126237;-63
2023/10/31 18:43:00;;;;;;;9.90;8.40;;;;;;;10.03;100.00;98098.44;429793;1271;139866;-64
2023/10/31 18:53:06;;;;;;;11.90;7.90;;;;;;;9.96;100.00;98120.45;429504;1276;140954;-64
2023/10/31 19:03:12;;;;;;;15.40;9.10;;;;;;;9.96;100.00;98122.07;429737;1275;139496;-62
2023/10/31 19:13:18;;;;;;;13.10;7.80;;;;;;;9.98;100.00;98131.70;429591;1275;139445;-65
2023/10/31 19:23:24;;;;;;;11.30;6.90;;;;;;;9.98;100.00;98137.63;429620;1274;139626;-63
2023/10/31 19:33:30;;;;;;;10.20;6.50;;;;;;;10.00;100.00;98136.73;429842;1273;139546;-64
2023/10/31 19:43:36;;;;;;;5.30;3.90;;;;;;;10.00;100.00;98144.25;429631;1276;139736;-63
2023/10/31 19:53:42;;;;;;;3.20;2.10;;;;;;;10.05;100.00;98149.76;429636;1276;139332;-62
2023/10/31 20:03:48;;;;;;;2.90;2.60;;;;;;;10.16;100.00;98167.58;429713;1276;140166;-63
2023/10/31 20:13:54;;;;;;;2.60;1.50;;;;;;;10.29;100.00;98167.38;429506;1275;139787;-62
2023/10/31 20:24:00;;;;;;;1.90;1.70;;;;;;;10.37;100.00;98166.11;429895;1277;141426;-63
2023/10/31 20:34:06;;;;;;;3.90;1.40;;;;;;;10.42;100.00;98169.29;429848;1276;140358;-64
2023/10/31 20:44:12;;;;;;;2.40;1.70;;;;;;;10.43;100.00;98179.35;430149;1270;140139;-63
2023/10/31 20:54:19;;;;;;;3.10;1.80;;;;;;;10.35;100.00;98183.61;430428;1276;139439;-63
2023/10/31 21:04:25;;;;;;;2.70;1.90;;;;;;;10.31;100.00;98191.52;430192;1276;140348;-63
2023/10/31 21:14:31;;;;;;;4.10;2.00;;;;;;;10.26;100.00;98209.04;429790;1270;140562;-62
2023/10/31 21:24:37;;;;;;;2.20;1.00;;;;;;;10.24;100.00;98216.23;430191;1275;140078;-63
2023/10/31 21:34:44;;;;;;;2.30;1.50;;;;;;;10.21;100.00;98202.27;429950;1273;139935;-64
2023/10/31 21:44:50;;;;;;;1.80;0.90;;;;;;;10.11;100.00;98201.73;430089;1271;139789;-63
2023/10/31 21:54:55;;;;;;;2.60;1.10;;;;;;;10.04;100.00;98203.39;430210;1270;143089;-63
2023/10/31 22:05:01;;;;;;;1.70;1.40;;;;;;;10.05;100.00;98216.02;429982;1275;139651;-63
2023/10/31 22:15:09;;;;;;;3.20;1.70;;;;;;;10.05;100.00;98239.86;432270;1266;140059;-63
2023/10/31 22:25:15;;;;;;;1.80;1.30;;;;;;;10.07;100.00;98273.92;429919;1274;139406;-63
2023/10/31 22:35:21;;;;;;;4.70;1.40;;;;;;;10.09;100.00;98291.09;429624;1275;140547;-62
2023/10/31 22:45:27;;;;;;;3.00;1.10;;;;;;;10.03;100.00;98304.55;429524;1273;139538;-64
2023/10/31 22:55:33;;;;;;;2.00;1.50;;;;;;;9.88;100.00;98314.08;429692;1272;139627;-63
2023/10/31 23:05:39;;;;;;;2.10;1.10;;;;;;;9.78;100.00;98325.43;430150;1273;139317;-66
2023/10/31 23:15:45;;;;;;;1.50;1.30;;;;;;;9.66;100.00;98352.05;429757;1274;139426;-63
2023/10/31 23:25:52;;;;;;;2.10;1.90;;;;;;;9.61;100.00;98369.54;430441;1273;139666;-63
2023/10/31 23:35:58;;;;;;;2.20;1.70;;;;;;;9.67;100.00;98373.46;430989;1272;139368;-63
2023/10/31 23:46:04;;;;;;;2.40;1.60;;;;;;;9.72;100.00;98371.89;430077;1274;140646;-63
2023/10/31 23:56:10;;;;;;;2.40;2.10;;;;;;;9.72;100.00;98383.74;433194;1272;139880;-64
